Time;durP1;ratioP1;P1;durP2;ratioP2;P2;SDS_P1;SDS_P2;PMS_P1;PMS_P2;Temp;Humidity;BMP_temperature;BMP_pressure;BME280_temperature;BME280_humidity;BME280_pressure;Samples;Min_cycle;Max_cycle;Signal;HPM_P1;HPM_P2
2021/03/29 00:00:13;;;;;;;4.83;2.53;;;;;;;3.75;100.00;100848.91;1756919;78;21121;-69
2021/03/29 00:02:41;;;;;;;4.90;3.77;;;;;;;3.71;100.00;100842.91;1820920;76;21188;-69
2021/03/29 00:05:12;;;;;;;3.73;2.87;;;;;;;3.67;100.00;100843.25;1816995;79;21173;-69
2021/03/29 00:07:44;;;;;;;6.57;3.30;;;;;;;3.61;100.00;100842.72;1816969;79;20996;-68
2021/03/29 00:10:15;;;;;;;5.17;2.90;;;;;;;3.58;100.00;100844.26;1817054;79;20996;-69
2021/03/29 00:12:46;;;;;;;2.97;2.17;;;;;;;3.55;100.00;100843.13;1817053;79;21470;-70
2021/03/29 00:15:18;;;;;;;7.33;3.30;;;;;;;3.54;100.00;100840.55;1817158;78;21414;-69
2021/03/29 00:17:46;;;;;;;6.93;4.27;;;;;;;3.52;100.00;100846.00;1845591;77;20981;-68
2021/03/29 00:20:21;;;;;;;4.57;3.03;;;;;;;3.51;100.00;100842.12;1824689;77;21032;-69
2021/03/29 00:22:49;;;;;;;5.30;2.62;;;;;;;3.49;100.00;100838.67;1720813;81;21291;-69
2021/03/29 00:25:19;;;;;;;7.83;3.00;;;;;;;3.46;100.00;100834.90;1723412;83;21019;-69
2021/03/29 00:27:48;;;;;;;4.30;2.47;;;;;;;3.43;100.00;100841.30;1728680;83;21192;-69
2021/03/29 00:30:27;;;;;;;3.77;1.93;;;;;;;3.40;100.00;100839.70;1728729;83;21059;-69
2021/03/29 00:32:55;;;;;;;2.47;2.07;;;;;;;3.37;100.00;100841.73;1728634;83;21086;-69
2021/03/29 00:35:25;;;;;;;5.70;2.53;;;;;;;3.31;100.00;100837.66;1704742;83;21626;-69
2021/03/29 00:37:56;;;;;;;10.77;3.57;;;;;;;3.26;100.00;100838.45;1728870;83;21669;-69
2021/03/29 00:40:26;;;;;;;4.27;2.67;;;;;;;3.23;100.00;100835.50;1704981;83;21026;-69
2021/03/29 00:43:01;;;;;;;7.00;3.47;;;;;;;3.20;100.00;100836.19;1752959;81;21041;-69
2021/03/29 00:45:30;;;;;;;8.33;4.17;;;;;;;3.18;100.00;100828.75;1753814;81;21097;-69
2021/03/29 00:47:58;;;;;;;3.10;2.60;;;;;;;3.16;100.00;100834.69;1753844;81;20974;-68
2021/03/29 00:50:36;;;;;;;3.33;2.93;;;;;;;3.15;100.00;100828.95;1753752;81;21001;-69
2021/03/29 00:53:05;;;;;;;6.47;3.13;;;;;;;3.14;100.00;100828.11;1753894;81;21390;-70
2021/03/29 00:55:33;;;;;;;7.17;3.70;;;;;;;3.14;100.00;100835.28;1753652;81;21068;-70
2021/03/29 00:58:02;;;;;;;6.93;3.73;;;;;;;3.14;100.00;100829.45;1753658;81;21687;-70
2021/03/29 01:00:40;;;;;;;5.73;3.63;;;;;;;3.15;100.00;100827.16;1753851;81;21085;-69
2021/03/29 01:03:30;;;;;;;6.63;2.40;;;;;;;3.17;100.00;100819.02;1845132;76;26428;-68
2021/03/29 01:06:07;;;;;;;6.05;3.05;;;;;;;3.14;100.00;100827.27;1810509;78;21158;-69
2021/03/29 01:08:38;;;;;;;4.23;3.23;;;;;;;3.11;100.00;100829.64;1815307;78;22126;-69
2021/03/29 01:11:07;;;;;;;4.63;3.00;;;;;;;3.09;100.00;100828.05;1815091;79;21465;-69
2021/03/29 01:13:44;;;;;;;2.77;2.30;;;;;;;3.05;100.00;100836.75;1815255;78;21466;-69
2021/03/29 01:16:14;;;;;;;3.03;2.33;;;;;;;3.01;100.00;100835.23;1815151;79;20970;-70
2021/03/29 01:18:44;;;;;;;5.63;3.20;;;;;;;2.96;100.00;100834.22;1814965;79;20996;-69
2021/03/29 01:21:45;;;;;;;3.23;1.83;;;;;;;2.92;100.00;100842.06;1815125;78;21364;-69
2021/03/29 01:24:33;;;;;;;2.25;1.37;;;;;;;2.86;100.00;100835.78;1815175;79;21553;-69
2021/03/29 01:27:08;;;;;;;3.57;2.47;;;;;;;2.83;100.00;100831.52;1844995;76;26667;-69
2021/03/29 01:29:36;;;;;;;3.60;2.73;;;;;;;2.78;100.00;100838.97;1784146;79;20972;-69
2021/03/29 01:32:05;;;;;;;4.03;3.40;;;;;;;2.78;100.00;100834.09;1815170;79;21196;-69
2021/03/29 01:34:36;;;;;;;4.07;2.47;;;;;;;2.78;100.00;100840.77;1815196;78;21044;-70
2021/03/29 01:37:05;;;;;;;3.57;2.33;;;;;;;2.79;100.00;100833.14;1815166;79;20980;-70
2021/03/29 01:39:33;;;;;;;10.47;3.20;;;;;;;2.79;100.00;100832.66;1814968;79;21031;-69
2021/03/29 01:42:01;;;;;;;6.43;4.00;;;;;;;2.80;100.00;100825.03;1815219;79;21576;-68
2021/03/29 01:44:29;;;;;;;4.10;2.50;;;;;;;2.80;100.00;100830.37;1815181;79;21199;-69
2021/03/29 01:46:57;;;;;;;4.00;3.17;;;;;;;2.82;100.00;100822.27;1783957;79;21023;-69
2021/03/29 01:49:25;;;;;;;6.83;3.70;;;;;;;2.83;100.00;100827.51;1784154;79;20977;-69
2021/03/29 01:51:53;;;;;;;6.77;4.87;;;;;;;2.83;100.00;100827.51;1815026;78;20992;-69
2021/03/29 01:54:21;;;;;;;7.97;3.37;;;;;;;2.82;100.00;100827.12;1815228;79;21530;-69
2021/03/29 01:56:49;;;;;;;8.97;3.30;;;;;;;2.84;100.00;100824.34;1815134;79;21803;-69
2021/03/29 01:59:18;;;;;;;4.33;2.37;;;;;;;2.83;100.00;100822.16;1815015;78;20948;-69
2021/03/29 02:01:47;;;;;;;5.80;3.50;;;;;;;2.84;100.00;100824.34;1815169;79;21568;-69
2021/03/29 02:04:15;;;;;;;4.80;2.43;;;;;;;2.81;100.00;100824.05;1815038;79;21011;-69
2021/03/29 02:06:43;;;;;;;2.53;2.33;;;;;;;2.81;100.00;100823.20;1810063;78;21553;-69
2021/03/29 02:09:11;;;;;;;2.10;1.47;;;;;;;2.78;100.00;100823.41;1815158;78;21368;-68
2021/03/29 02:11:39;;;;;;;2.20;1.33;;;;;;;2.78;100.00;100822.06;1815135;78;21019;-70
2021/03/29 02:14:07;;;;;;;2.30;2.10;;;;;;;2.77;100.00;100824.38;1815085;79;21000;-69
2021/03/29 02:16:35;;;;;;;3.20;2.20;;;;;;;2.75;100.00;100827.64;1772691;79;21556;-70
2021/03/29 02:19:04;;;;;;;3.07;2.37;;;;;;;2.71;100.00;100826.10;1798120;78;20973;-70
2021/03/29 02:21:36;;;;;;;2.93;2.63;;;;;;;2.67;100.00;100825.45;1814953;78;21180;-70
2021/03/29 02:24:07;;;;;;;8.03;3.57;;;;;;;2.65;100.00;100820.20;1801774;79;21000;-70
2021/03/29 02:26:38;;;;;;;5.30;3.77;;;;;;;2.64;100.00;100818.52;1801807;79;21283;-69
2021/03/29 02:29:05;;;;;;;7.10;3.83;;;;;;;2.60;100.00;100821.02;1801941;79;20964;-69
2021/03/29 02:31:35;;;;;;;3.50;2.83;;;;;;;2.56;100.00;100816.81;1802073;79;21067;-68
2021/03/29 02:34:04;;;;;;;6.40;3.03;;;;;;;2.53;100.00;100825.50;1802056;79;21554;-69
2021/03/29 02:36:32;;;;;;;3.30;2.87;;;;;;;2.47;100.00;100816.94;1775399;79;20996;-70
2021/03/29 02:39:00;;;;;;;2.60;1.93;;;;;;;2.43;100.00;100822.10;1801479;79;21043;-69
2021/03/29 02:41:30;;;;;;;6.37;3.07;;;;;;;2.39;100.00;100819.27;1801374;79;21012;-69
2021/03/29 02:43:59;;;;;;;7.70;3.83;;;;;;;2.36;100.00;100822.12;1801352;79;20953;-68
2021/03/29 02:46:30;;;;;;;6.00;2.90;;;;;;;2.34;100.00;100818.70;1801568;78;22267;-69
2021/03/29 02:49:02;;;;;;;6.73;3.47;;;;;;;2.33;100.00;100820.13;1801445;79;21000;-69
2021/03/29 02:51:32;;;;;;;5.13;2.77;;;;;;;2.31;100.00;100822.05;1801375;79;21031;-69
2021/03/29 02:54:05;;;;;;;2.60;2.40;;;;;;;2.30;100.00;100817.66;1801471;79;21047;-69
2021/03/29 02:56:36;;;;;;;;;;;;;;;2.29;100.00;100815.47;1804107;79;20960;-69
2021/03/29 02:59:07;;;;;;;1.97;1.83;;;;;;;2.27;100.00;100818.23;1801462;79;21487;-69
2021/03/29 03:01:38;;;;;;;4.40;3.00;;;;;;;2.26;100.00;100815.17;1801356;79;21233;-68
2021/03/29 03:04:13;;;;;;;7.37;3.00;;;;;;;2.23;100.00;100816.73;1775974;79;22426;-70
2021/03/29 03:06:42;;;;;;;4.63;3.10;;;;;;;2.19;100.00;100820.53;1801283;79;21603;-70
2021/03/29 03:09:13;;;;;;;3.80;3.33;;;;;;;2.17;100.00;100818.44;1801501;79;21024;-69
2021/03/29 03:11:45;;;;;;;1.87;1.63;;;;;;;2.17;100.00;100820.26;1801548;79;21387;-68
2021/03/29 03:14:13;;;;;;;7.17;3.33;;;;;;;2.15;100.00;100820.35;1804361;79;21055;-69
2021/03/29 03:16:43;;;;;;;5.70;3.03;;;;;;;2.14;100.00;100814.62;1805157;79;21038;-69
2021/03/29 03:19:11;;;;;;;7.90;4.33;;;;;;;2.13;100.00;100818.75;1801555;79;20991;-70
2021/03/29 03:21:40;;;;;;;4.97;3.10;;;;;;;2.12;100.00;100820.54;1846044;76;21038;-69
2021/03/29 03:24:09;;;;;;;3.57;3.27;;;;;;;2.12;100.00;100826.36;1832064;78;22168;-68
2021/03/29 03:26:37;;;;;;;8.80;3.87;;;;;;;2.11;100.00;100817.96;1822254;78;21616;-69
2021/03/29 03:29:05;;;;;;;6.30;3.70;;;;;;;2.09;100.00;100826.94;1814504;79;21104;-69
2021/03/29 03:31:33;;;;;;;3.20;2.40;;;;;;;2.06;100.00;100817.79;1814494;79;20976;-69
2021/03/29 03:34:02;;;;;;;7.10;3.53;;;;;;;2.04;100.00;100830.86;1814398;79;21091;-69
2021/03/29 03:36:32;;;;;;;5.17;3.90;;;;;;;2.01;100.00;100831.89;1814458;79;21803;-69
2021/03/29 03:38:59;;;;;;;2.37;2.17;;;;;;;1.98;100.00;100825.89;1814433;79;21118;-69
2021/03/29 03:41:32;;;;;;;5.57;3.00;;;;;;;1.94;100.00;100843.05;1814413;79;21036;-70
2021/03/29 03:44:01;;;;;;;6.90;3.90;;;;;;;1.93;100.00;100846.66;1814538;79;21024;-70
2021/03/29 03:46:33;;;;;;;5.33;1.67;;;;;;;1.92;100.00;100855.15;1814545;78;21151;-69
2021/03/29 03:49:14;;;;;;;4.05;2.98;;;;;;;1.91;100.00;100853.42;1810423;79;21250;-69
2021/03/29 03:51:43;;;;;;;2.00;1.87;;;;;;;1.90;100.00;100853.91;1798526;78;21650;-69
2021/03/29 03:54:11;;;;;;;4.57;2.90;;;;;;;1.91;100.00;100857.42;1798484;79;21063;-69
2021/03/29 03:56:39;;;;;;;4.87;2.63;;;;;;;1.93;100.00;100858.66;1798485;79;20952;-68
2021/03/29 03:59:08;;;;;;;3.67;3.20;;;;;;;1.96;100.00;100861.15;1798446;79;21135;-68
2021/03/29 04:02:07;;;;;;;5.10;3.83;;;;;;;1.99;100.00;100853.81;1763213;81;21208;-68
2021/03/29 04:04:35;;;;;;;2.37;2.17;;;;;;;2.00;100.00;100851.53;1762401;81;20956;-69
2021/03/29 04:07:04;;;;;;;4.67;3.37;;;;;;;2.02;100.00;100856.30;1762336;81;21130;-68
2021/03/29 04:12:21;;;;;;;5.10;2.60;;;;;;;2.13;100.00;100856.11;1845110;76;26519;-68
2021/03/29 04:14:49;;;;;;;3.03;2.17;;;;;;;2.16;100.00;100861.22;1815129;79;21541;-68
2021/03/29 04:17:16;;;;;;;5.60;3.33;;;;;;;2.21;100.00;100859.12;1815159;78;21197;-67
2021/03/29 04:19:45;;;;;;;4.60;2.13;;;;;;;2.26;100.00;100861.88;1815219;79;21023;-68
2021/03/29 04:22:14;;;;;;;1.80;1.70;;;;;;;2.34;100.00;100858.73;1815100;78;20992;-68
2021/03/29 04:24:42;;;;;;;3.80;2.77;;;;;;;2.40;100.00;100860.16;1815232;79;21048;-68
2021/03/29 04:27:10;;;;;;;4.40;3.10;;;;;;;2.46;100.00;100857.95;1815172;79;20980;-68
2021/03/29 04:29:38;;;;;;;7.93;3.33;;;;;;;2.54;100.00;100862.78;1815209;79;21372;-69
2021/03/29 04:32:08;;;;;;;4.70;2.30;;;;;;;2.59;100.00;100860.67;1815091;79;21000;-67
2021/03/29 04:34:37;;;;;;;3.77;2.97;;;;;;;2.66;100.00;100871.34;1784646;79;20984;-68
2021/03/29 04:37:04;;;;;;;3.57;2.87;;;;;;;2.73;100.00;100873.63;1815141;78;21008;-68
2021/03/29 04:39:32;;;;;;;2.07;1.87;;;;;;;2.79;100.00;100874.54;1815252;79;21062;-68
2021/03/29 04:42:00;;;;;;;3.30;3.03;;;;;;;2.81;100.00;100876.63;1815285;79;21372;-68
2021/03/29 04:44:28;;;;;;;7.03;4.30;;;;;;;2.85;100.00;100884.81;1815090;77;21070;-68
2021/03/29 04:46:57;;;;;;;4.90;3.17;;;;;;;2.84;100.00;100879.11;1815133;79;20969;-68
2021/03/29 04:49:25;;;;;;;7.20;2.77;;;;;;;2.85;100.00;100884.35;1815144;79;20984;-67
2021/03/29 04:51:53;;;;;;;4.73;2.57;;;;;;;2.88;100.00;100887.78;1815245;78;21032;-67
2021/03/29 04:54:21;;;;;;;3.70;2.50;;;;;;;2.90;100.00;100881.84;1815186;79;21190;-67
2021/03/29 04:56:49;;;;;;;6.93;3.33;;;;;;;2.93;100.00;100885.66;1815171;79;20976;-67
2021/03/29 04:59:17;;;;;;;4.07;2.90;;;;;;;2.95;100.00;100877.91;1815219;79;21613;-68
2021/03/29 05:01:46;;;;;;;3.17;2.40;;;;;;;3.01;100.00;100881.98;1815040;77;20988;-68
2021/03/29 05:04:14;;;;;;;5.77;1.93;;;;;;;3.07;100.00;100884.75;1815196;79;21060;-67
2021/03/29 05:06:43;;;;;;;2.03;1.83;;;;;;;3.14;100.00;100881.55;1815097;79;21580;-68
2021/03/29 05:09:11;;;;;;;8.47;3.97;;;;;;;3.23;100.00;100886.28;1815118;78;20984;-70
2021/03/29 05:11:50;;;;;;;6.00;2.50;;;;;;;3.33;100.00;100885.20;1812995;78;21092;-69
2021/03/29 05:14:15;;;;;;;3.70;1.90;;;;;;;3.44;100.00;100887.63;1809040;79;21064;-70
2021/03/29 05:16:45;;;;;;;3.30;2.57;;;;;;;3.52;100.00;100887.45;1744708;81;21048;-70
2021/03/29 05:19:14;;;;;;;6.50;3.07;;;;;;;3.59;100.00;100884.77;1771456;81;22063;-70
2021/03/29 05:21:42;;;;;;;4.50;2.03;;;;;;;3.68;100.00;100887.74;1771314;80;20971;-69
2021/03/29 05:24:10;;;;;;;5.60;2.20;;;;;;;3.74;100.00;100881.50;1770823;81;21087;-69
2021/03/29 05:26:38;;;;;;;2.00;1.80;;;;;;;3.82;100.00;100881.44;1770747;81;20976;-69
2021/03/29 05:29:06;;;;;;;4.00;3.07;;;;;;;3.88;100.00;100876.98;1770999;81;21015;-70
2021/03/29 05:31:39;;;;;;;8.13;4.07;;;;;;;3.95;100.00;100876.96;1771007;81;21643;-70
2021/03/29 05:34:04;;;;;;;2.30;1.97;;;;;;;4.04;100.00;100880.31;1717627;81;21537;-69
2021/03/29 05:36:32;;;;;;;3.77;3.20;;;;;;;4.12;100.00;100876.59;1770790;80;21525;-69
2021/03/29 05:39:01;;;;;;;21.33;3.53;;;;;;;4.24;100.00;100874.88;1770826;81;21083;-70
2021/03/29 05:41:29;;;;;;;4.13;2.87;;;;;;;4.33;100.00;100874.20;1770841;79;21597;-69
2021/03/29 05:43:57;;;;;;;9.03;4.37;;;;;;;4.42;100.00;100871.84;1770839;81;21560;-69
2021/03/29 05:46:25;;;;;;;3.43;2.50;;;;;;;4.51;100.00;100880.05;1771339;81;20991;-71
2021/03/29 05:48:53;;;;;;;4.60;3.40;;;;;;;4.61;100.00;100877.58;1771359;81;21612;-70
2021/03/29 05:51:21;;;;;;;4.10;2.50;;;;;;;4.74;100.00;100872.16;1741528;81;21945;-68
2021/03/29 05:53:49;;;;;;;13.27;5.23;;;;;;;4.86;100.00;100871.25;1771269;81;20996;-69
2021/03/29 05:56:17;;;;;;;6.80;4.10;;;;;;;5.00;100.00;100880.95;1771386;81;21386;-70
2021/03/29 05:58:56;;;;;;;5.23;3.87;;;;;;;5.11;100.00;100880.99;1771236;81;20988;-69
2021/03/29 06:01:14;;;;;;;4.40;2.77;;;;;;;5.24;100.00;100881.41;1770483;79;20979;-69
2021/03/29 06:03:43;;;;;;;6.23;2.77;;;;;;;5.35;100.00;100881.94;1770906;81;21034;-69
2021/03/29 06:06:20;;;;;;;3.60;2.70;;;;;;;5.46;100.00;100883.33;1771048;81;20975;-70
2021/03/29 06:08:50;;;;;;;5.07;2.70;;;;;;;5.54;100.00;100878.22;1771028;81;21834;-70
2021/03/29 06:11:37;;;;;;;7.73;3.93;;;;;;;5.63;100.00;100874.84;1776383;79;21094;-70
2021/03/29 06:14:18;;;;;;;13.67;3.97;;;;;;;5.68;100.00;100880.72;1785084;80;21016;-69
2021/03/29 06:16:59;;;;;;;2.90;2.47;;;;;;;5.72;100.00;100873.28;1801890;78;21020;-70
2021/03/29 06:19:40;;;;;;;10.93;2.40;;;;;;;5.79;100.00;100868.27;1676190;84;21042;-69
2021/03/29 06:22:22;;;;;;;7.97;3.83;;;;;;;5.86;100.00;100873.52;1670258;85;22226;-70
2021/03/29 06:25:13;;;;;;;5.10;3.33;;;;;;;5.96;100.00;100866.98;1670885;85;21063;-69
2021/03/29 06:27:56;;;;;;;6.67;4.07;;;;;;;6.09;100.00;100869.05;1666069;86;21047;-70
2021/03/29 06:30:34;;;;;;;5.13;3.30;;;;;;;6.32;100.00;100857.84;1845577;76;26765;-72
2021/03/29 06:33:12;;;;;;;3.80;2.60;;;;;;;6.45;100.00;100855.85;1815796;79;20972;-71
2021/03/29 06:35:50;;;;;;;9.43;5.07;;;;;;;6.67;100.00;100865.34;1815516;79;21589;-70
2021/03/29 06:38:23;;;;;;;10.13;4.97;;;;;;;6.91;100.00;100854.41;1815056;79;20994;-71
2021/03/29 06:40:58;;;;;;;5.45;3.35;;;;;;;7.17;100.00;100853.55;1810100;79;21059;-71
2021/03/29 06:43:36;;;;;;;9.83;4.67;;;;;;;7.43;100.00;100857.23;1814105;78;21019;-70
2021/03/29 06:46:20;;;;;;;5.03;3.30;;;;;;;7.65;100.00;100858.92;1807079;79;21663;-75
2021/03/29 06:48:48;;;;;;;7.70;3.27;;;;;;;7.88;100.00;100856.93;1814318;79;21188;-74
2021/03/29 06:51:32;;;;;;;9.90;4.60;;;;;;;8.17;100.00;100857.92;1813326;77;21079;-72
2021/03/29 06:54:06;;;;;;;5.03;2.90;;;;;;;8.45;100.00;100856.86;1765744;81;21048;-71
2021/03/29 06:56:36;;;;;;;8.38;4.15;;;;;;;8.81;100.00;100859.91;1798927;79;20972;-71
2021/03/29 06:59:15;;;;;;;13.03;4.70;;;;;;;9.15;100.00;100851.42;1815363;77;20979;-72
2021/03/29 07:01:51;;;;;;;11.30;4.53;;;;;;;9.48;100.00;100853.33;1766333;81;22781;-71
2021/03/29 07:04:26;;;;;;;6.17;3.90;;;;;;;9.86;100.00;100849.70;1882404;74;22846;-70
2021/03/29 07:06:55;;;;;;;6.00;3.00;;;;;;;10.10;100.00;100855.09;1815465;78;20985;-78
2021/03/29 07:09:25;;;;;;;3.17;2.80;;;;;;;10.33;100.00;100848.83;1802084;78;22195;-73
2021/03/29 07:11:53;;;;;;;12.70;3.97;;;;;;;10.59;100.00;100852.20;1781052;80;21018;-75
2021/03/29 07:14:24;;;;;;;5.90;4.10;;;;;;;10.78;100.00;100852.56;1780968;77;20981;-76
2021/03/29 07:16:54;;;;;;;6.87;3.50;;;;;;;10.96;100.00;100852.57;1722222;81;21576;-74
2021/03/29 07:19:23;;;;;;;10.13;3.60;;;;;;;11.15;100.00;100851.06;1699528;83;21138;-76
2021/03/29 07:21:53;;;;;;;3.87;2.67;;;;;;;11.33;100.00;100858.33;1743299;82;21363;-74
2021/03/29 07:24:22;;;;;;;9.40;3.77;;;;;;;11.51;100.00;100855.59;1760292;81;21933;-77
2021/03/29 07:26:58;;;;;;;8.33;3.52;;;;;;;11.65;100.00;100854.18;1741754;82;21004;-75
2021/03/29 07:29:33;;;;;;;4.30;3.55;;;;;;;11.74;100.00;100856.80;1752610;81;20950;-77
2021/03/29 07:32:05;;;;;;;7.30;3.90;;;;;;;11.88;100.00;100854.50;1744491;82;21029;-76
2021/03/29 07:34:49;;;;;;;2.97;2.43;;;;;;;12.17;100.00;100854.73;1828162;76;22680;-75
2021/03/29 07:37:40;;;;;;;8.08;4.37;;;;;;;12.28;100.00;100860.70;1796449;79;20993;-78
2021/03/29 07:40:22;;;;;;;6.55;3.12;;;;;;;12.46;100.00;100856.53;1729108;81;21376;-74
2021/03/29 07:42:53;;;;;;;6.97;3.47;;;;;;;12.74;100.00;100854.94;1721824;83;21055;-72
2021/03/29 07:45:40;;;;;;;6.13;4.03;;;;;;;12.97;100.00;100855.16;1877594;74;22743;-71
2021/03/29 07:48:08;;;;;;;8.33;4.75;;;;;;;13.08;100.00;100855.34;1759884;81;21053;-71
2021/03/29 07:50:42;;;;;;;5.03;3.10;;;;;;;13.26;100.00;100849.76;1758817;81;21654;-73
2021/03/29 07:53:17;;;;;;;5.22;3.45;;;;;;;13.37;100.00;100860.83;1792547;79;21052;-73
2021/03/29 07:55:49;;;;;;;4.47;3.25;;;;;;;13.49;100.00;100867.62;1812227;79;21131;-71
2021/03/29 07:58:21;;;;;;;5.20;3.05;;;;;;;13.67;100.00;100857.44;1791650;79;21131;-72
2021/03/29 08:00:57;;;;;;;5.15;2.35;;;;;;;13.76;100.00;100867.80;1788794;80;21029;-72
2021/03/29 08:03:31;;;;;;;6.03;3.22;;;;;;;13.79;100.00;100867.95;1723407;81;22656;-73
2021/03/29 08:06:00;;;;;;;;;;;;;;;13.87;100.00;100874.73;1755207;81;21017;-72
2021/03/29 08:08:35;;;;;;;4.25;3.50;;;;;;;13.94;100.00;100879.83;1727589;81;20612;-72
2021/03/29 08:11:17;;;;;;;5.97;4.03;;;;;;;14.03;100.00;100873.34;1728537;83;21919;-73
2021/03/29 08:13:49;;;;;;;6.22;3.52;;;;;;;14.10;100.00;100879.47;1752865;81;21017;-73
2021/03/29 08:19:20;;;;;;;7.93;3.80;;;;;;;14.18;100.00;100887.58;1855869;76;27814;-74
2021/03/29 08:22:09;;;;;;;4.08;2.75;;;;;;;14.26;100.00;100889.45;1828476;77;21587;-73
2021/03/29 08:24:50;;;;;;;7.28;3.62;;;;;;;14.28;100.00;100886.04;1833389;77;21035;-73
2021/03/29 08:27:28;;;;;;;5.12;3.87;;;;;;;14.31;100.00;100891.14;1859713;77;21522;-76
2021/03/29 08:30:12;;;;;;;3.42;2.60;;;;;;;14.31;100.00;100893.34;1850378;77;21056;-76
2021/03/29 08:32:40;;;;;;;10.65;5.33;;;;;;;14.40;100.00;100893.64;1837735;77;21573;-75
2021/03/29 08:35:14;;;;;;;7.80;4.05;;;;;;;14.53;100.00;100897.16;1828154;77;20992;-72
2021/03/29 08:37:50;;;;;;;8.68;3.70;;;;;;;14.48;100.00;100890.55;1827482;77;21193;-74
2021/03/29 08:40:25;;;;;;;7.30;3.47;;;;;;;14.42;100.00;100900.27;1843375;77;21008;-72
2021/03/29 08:42:59;;;;;;;5.28;3.00;;;;;;;14.44;100.00;100890.05;1794113;78;21290;-74
2021/03/29 08:45:28;;;;;;;4.70;3.02;;;;;;;14.54;100.00;100896.14;1786402;80;21041;-74
2021/03/29 08:47:59;;;;;;;4.53;2.80;;;;;;;14.44;100.00;100896.86;1798074;78;21594;-70
2021/03/29 08:50:40;;;;;;;5.92;3.33;;;;;;;14.25;100.00;100894.02;1784344;80;21475;-71
2021/03/29 08:53:10;;;;;;;8.90;3.87;;;;;;;14.14;100.00;100902.56;1789016;80;21065;-71
2021/03/29 08:55:40;;;;;;;6.03;3.00;;;;;;;14.07;100.00;100905.12;1789976;78;21128;-73
2021/03/29 08:58:08;;;;;;;6.70;3.95;;;;;;;14.20;100.00;100891.84;1820251;78;21541;-76
2021/03/29 09:00:40;;;;;;;6.40;3.33;;;;;;;14.34;100.00;100902.52;1811326;78;21610;-75
2021/03/29 09:03:17;;;;;;;6.00;3.10;;;;;;;14.48;100.00;100898.72;1774567;80;21195;-72
2021/03/29 09:05:48;;;;;;;4.65;3.22;;;;;;;14.53;100.00;100899.88;1753870;79;21041;-72
2021/03/29 09:08:16;;;;;;;4.33;3.60;;;;;;;14.56;100.00;100897.34;1721162;82;21998;-72
2021/03/29 09:10:46;;;;;;;4.90;3.70;;;;;;;14.49;100.00;100899.91;1747897;82;20971;-73
2021/03/29 09:13:15;;;;;;;5.87;3.37;;;;;;;14.44;100.00;100896.34;1748206;82;21050;-75
2021/03/29 09:15:45;;;;;;;5.65;3.52;;;;;;;14.52;100.00;100893.25;1748085;82;21328;-73
2021/03/29 09:18:18;;;;;;;6.20;3.72;;;;;;;14.63;100.00;100909.77;1747297;81;21253;-73
2021/03/29 09:20:49;;;;;;;5.53;3.40;;;;;;;14.68;100.00;100904.13;1747657;80;21591;-73
2021/03/29 09:23:22;;;;;;;4.15;2.92;;;;;;;14.76;100.00;100899.98;1737608;80;21364;-74
2021/03/29 09:25:52;;;;;;;2.60;2.30;;;;;;;14.76;100.00;100895.89;1740481;80;21011;-74
2021/03/29 09:28:34;;;;;;;4.50;2.42;;;;;;;14.76;100.00;100892.34;1742990;80;21200;-73
2021/03/29 09:31:00;;;;;;;5.72;3.50;;;;;;;14.83;100.00;100896.04;1726539;80;21516;-72
2021/03/29 09:33:29;;;;;;;5.40;2.80;;;;;;;14.91;100.00;100893.77;1738315;82;21091;-73
2021/03/29 09:35:59;;;;;;;2.55;2.33;;;;;;;14.96;100.00;100898.17;1745268;80;21143;-78
2021/03/29 09:38:35;;;;;;;4.20;3.80;;;;;;;15.04;100.00;100903.59;1706159;82;21147;-77
2021/03/29 09:41:21;;;;;;;5.10;4.13;;;;;;;15.27;100.00;100902.77;1839193;75;22986;-69
2021/03/29 09:43:52;;;;;;;3.60;2.92;;;;;;;15.31;100.00;100894.56;1805205;79;21030;-67
2021/03/29 09:46:32;;;;;;;5.90;3.83;;;;;;;15.35;100.00;100899.97;1810677;79;21190;-69
2021/03/29 09:49:16;;;;;;;4.95;3.55;;;;;;;15.40;100.00;100897.55;1812925;79;21057;-67
2021/03/29 09:51:51;;;;;;;7.00;3.27;;;;;;;15.46;100.00;100902.28;1721714;82;21104;-66
2021/03/29 09:54:33;;;;;;;6.78;4.08;;;;;;;15.48;100.00;100896.66;1668164;86;21112;-68
2021/03/29 09:57:20;;;;;;;4.42;2.72;;;;;;;15.21;100.00;100897.53;1713781;83;21000;-69
2021/03/29 09:59:50;;;;;;;4.97;3.17;;;;;;;15.21;100.00;100897.53;1658419;83;21389;-67
2021/03/29 10:02:24;;;;;;;4.45;3.25;;;;;;;15.34;100.00;100899.66;1728917;80;21011;-70
2021/03/29 10:05:07;;;;;;;2.52;2.27;;;;;;;15.54;100.00;100904.09;1728793;83;21020;-69
2021/03/29 10:07:54;;;;;;;5.67;3.50;;;;;;;15.79;100.00;100912.09;1727032;83;21099;-73
2021/03/29 10:10:31;;;;;;;3.20;2.47;;;;;;;15.83;100.00;100907.95;1715620;83;20999;-71
2021/03/29 10:13:13;;;;;;;6.63;3.50;;;;;;;15.74;100.00;100906.69;1844997;76;22653;-72
2021/03/29 10:15:42;;;;;;;6.12;3.70;;;;;;;15.63;100.00;100907.59;1815602;79;21017;-72
2021/03/29 10:18:13;;;;;;;4.22;2.33;;;;;;;15.48;100.00;100916.58;1816194;78;21194;-69
2021/03/29 10:20:45;;;;;;;4.87;3.30;;;;;;;15.51;100.00;100913.49;1822980;78;21559;-68
2021/03/29 10:23:30;;;;;;;5.20;2.77;;;;;;;15.66;100.00;100908.60;1811244;78;20979;-68
2021/03/29 10:29:02;;;;;;;4.42;2.83;;;;;;;15.72;100.00;100906.00;1741692;81;21040;-73
2021/03/29 10:31:33;;;;;;;6.87;3.85;;;;;;;15.82;100.00;100897.58;1753046;80;21473;-72
2021/03/29 10:34:01;;;;;;;3.85;3.45;;;;;;;16.00;100.00;100893.14;1695826;83;21040;-76
2021/03/29 10:36:30;;;;;;;7.55;3.50;;;;;;;16.27;100.00;100890.31;1737127;81;21582;-73
2021/03/29 10:38:58;;;;;;;3.45;2.25;;;;;;;16.38;100.00;100892.22;1696639;84;21097;-77
2021/03/29 10:41:26;;;;;;;4.95;3.08;;;;;;;16.37;99.96;100889.17;1723409;83;21061;-75
2021/03/29 10:43:55;;;;;;;6.97;3.87;;;;;;;16.37;99.50;100889.17;1698730;84;21276;-72
2021/03/29 10:46:25;;;;;;;2.85;2.55;;;;;;;16.28;97.40;100897.45;1702801;83;21154;-71
2021/03/29 10:48:53;;;;;;;4.10;3.05;;;;;;;16.17;97.37;100891.10;1778232;80;21008;-73
2021/03/29 10:51:21;;;;;;;3.55;2.60;;;;;;;16.23;98.18;100897.16;1736205;81;20960;-73
2021/03/29 10:53:49;;;;;;;5.17;3.27;;;;;;;16.12;90.70;100892.17;1744321;81;21214;-73
2021/03/29 10:56:17;;;;;;;8.98;4.00;;;;;;;15.97;95.13;100897.63;1739254;81;21201;-70
2021/03/29 10:58:49;;;;;;;3.95;3.00;;;;;;;16.04;95.80;100890.39;1697750;84;21081;-68
2021/03/29 11:01:17;;;;;;;3.83;2.55;;;;;;;16.19;93.13;100900.47;1717155;83;21046;-70
2021/03/29 11:03:46;;;;;;;6.85;3.62;;;;;;;16.19;85.88;100897.73;1761880;81;21554;-69
2021/03/29 11:06:14;;;;;;;3.58;2.98;;;;;;;16.04;86.92;100894.98;1683685;84;21227;-70
2021/03/29 11:08:42;;;;;;;3.98;3.20;;;;;;;15.97;90.82;100905.81;1748275;81;22019;-68
2021/03/29 11:11:10;;;;;;;5.37;3.62;;;;;;;15.99;91.63;100903.73;1740329;81;21190;-70
2021/03/29 11:13:46;;;;;;;4.25;2.67;;;;;;;16.03;89.19;100895.50;1732867;82;21035;-69
2021/03/29 11:16:16;;;;;;;5.95;3.37;;;;;;;16.04;86.07;100899.07;1739145;81;21324;-68
2021/03/29 11:18:45;;;;;;;5.30;3.25;;;;;;;16.07;90.00;100902.27;1747467;81;21629;-67
2021/03/29 11:21:13;;;;;;;3.37;2.80;;;;;;;16.23;85.79;100897.16;1746717;81;21427;-69
2021/03/29 11:23:42;;;;;;;2.72;2.50;;;;;;;16.13;81.85;100891.16;1754982;81;21027;-66
2021/03/29 11:26:10;;;;;;;3.83;3.05;;;;;;;15.77;78.18;100887.73;1790938;79;21008;-67
2021/03/29 11:28:38;;;;;;;4.72;3.15;;;;;;;15.38;81.67;100892.27;1815962;78;21614;-66
2021/03/29 11:31:06;;;;;;;2.33;1.95;;;;;;;15.10;83.24;100893.84;1814905;79;20968;-67
2021/03/29 11:33:34;;;;;;;2.83;2.25;;;;;;;14.92;86.86;100893.60;1813972;79;21258;-71
2021/03/29 11:36:05;;;;;;;4.10;2.33;;;;;;;14.83;86.91;100887.03;1810839;79;20996;-71
2021/03/29 11:38:37;;;;;;;3.42;2.52;;;;;;;14.70;86.23;100891.70;1802279;78;21015;-74
2021/03/29 11:41:04;;;;;;;3.77;2.65;;;;;;;14.61;86.68;100884.92;1810080;79;20996;-71
2021/03/29 11:43:32;;;;;;;3.40;2.72;;;;;;;14.51;89.32;100897.85;1812956;79;21008;-73
2021/03/29 11:46:00;;;;;;;3.80;2.45;;;;;;;14.47;88.73;100895.16;1796221;78;22036;-68
2021/03/29 11:48:30;;;;;;;4.55;2.95;;;;;;;14.38;91.61;100897.58;1813846;79;21552;-67
2021/03/29 11:50:58;;;;;;;3.17;2.87;;;;;;;14.38;93.10;100897.05;1800663;79;21040;-68